Time;durP1;ratioP1;P1;durP2;ratioP2;P2;SDS_P1;SDS_P2;PMS_P1;PMS_P2;Temp;Humidity;BMP_temperature;BMP_pressure;BME280_temperature;BME280_humidity;BME280_pressure;Samples;Min_cycle;Max_cycle;Signal;HPM_P1;HPM_P2
2022/11/28 00:01:24;;;;;;;7.82;3.50;;;6.10;99.90;;;;;;4897733;29;20045;-72
2022/11/28 00:03:50;;;;;;;9.73;3.80;;;6.20;99.90;;;;;;4897965;29;20076;-72
2022/11/28 00:06:17;;;;;;;10.57;3.90;;;6.20;99.90;;;;;;4896673;29;20064;-72
2022/11/28 00:08:43;;;;;;;8.95;3.58;;;6.20;99.90;;;;;;4897827;29;20146;-72
2022/11/28 00:11:11;;;;;;;10.07;3.60;;;6.20;99.90;;;;;;4896080;29;20056;-72
2022/11/28 00:13:37;;;;;;;8.52;3.25;;;6.20;99.90;;;;;;4897976;29;20172;-72
2022/11/28 00:16:06;;;;;;;11.05;4.18;;;6.30;99.90;;;;;;4897961;29;20052;-72
2022/11/28 00:18:31;;;;;;;7.32;3.60;;;6.30;99.90;;;;;;4897718;29;20088;-71
2022/11/28 00:21:11;;;;;;;11.60;3.97;;;6.40;99.90;;;;;;4897473;29;20571;-72
2022/11/28 00:23:37;;;;;;;7.82;3.33;;;6.30;99.90;;;;;;4897648;29;20055;-72
2022/11/28 00:26:07;;;;;;;7.97;3.25;;;6.30;99.90;;;;;;4897497;29;20056;-72
2022/11/28 00:28:33;;;;;;;8.63;4.15;;;6.30;99.90;;;;;;4896930;29;20084;-72
2022/11/28 00:30:59;;;;;;;9.10;3.38;;;6.30;99.90;;;;;;4897580;29;20055;-72
2022/11/28 00:33:24;;;;;;;8.27;3.45;;;6.60;99.90;;;;;;4897182;29;20444;-72
2022/11/28 00:35:50;;;;;;;9.80;3.95;;;6.40;99.90;;;;;;4896969;29;20048;-72
2022/11/28 00:38:16;;;;;;;9.07;3.50;;;6.40;99.90;;;;;;4896888;29;20074;-72
2022/11/28 00:40:42;;;;;;;13.23;4.10;;;6.40;99.90;;;;;;4896979;29;20048;-72
2022/11/28 00:43:07;;;;;;;8.98;4.22;;;6.40;99.90;;;;;;4897222;29;20047;-72
2022/11/28 00:45:33;;;;;;;8.90;3.75;;;6.50;99.90;;;;;;4897123;29;20056;-72
2022/11/28 00:47:59;;;;;;;10.93;4.32;;;6.40;99.90;;;;;;4897352;29;20060;-72
2022/11/28 00:50:24;;;;;;;10.82;4.10;;;6.40;99.90;;;;;;4895259;29;20057;-72
2022/11/28 00:52:50;;;;;;;7.28;3.88;;;6.30;99.90;;;;;;4896885;29;20558;-72
2022/11/28 00:55:16;;;;;;;11.60;4.00;;;6.40;99.90;;;;;;4895458;29;20104;-72
2022/11/28 00:57:41;;;;;;;8.95;3.67;;;6.40;99.90;;;;;;4897330;29;20050;-72
2022/11/28 01:00:08;;;;;;;10.85;3.58;;;6.40;99.90;;;;;;4897050;29;20131;-72
2022/11/28 01:02:33;;;;;;;7.50;3.40;;;6.40;99.90;;;;;;4896489;29;20055;-72
2022/11/28 01:04:59;;;;;;;7.95;3.60;;;6.40;99.90;;;;;;4895274;29;20044;-72
2022/11/28 01:07:27;;;;;;;6.80;3.13;;;6.40;99.90;;;;;;4896410;29;20057;-72
2022/11/28 01:09:54;;;;;;;10.43;3.60;;;6.40;99.90;;;;;;4896821;29;20056;-72
2022/11/28 01:12:19;;;;;;;8.10;3.60;;;6.40;99.90;;;;;;4896393;29;20399;-72
2022/11/28 01:14:45;;;;;;;8.93;4.07;;;6.40;99.90;;;;;;4896830;29;20051;-72
2022/11/28 01:17:11;;;;;;;7.50;3.78;;;6.40;99.90;;;;;;4896727;29;20051;-72
2022/11/28 01:19:37;;;;;;;8.25;3.80;;;6.40;99.90;;;;;;4896229;29;20079;-72
2022/11/28 01:22:05;;;;;;;12.27;3.47;;;6.40;99.90;;;;;;4896717;29;20056;-72
2022/11/28 01:24:31;;;;;;;8.13;3.60;;;6.40;99.90;;;;;;4896170;29;20173;-72
2022/11/28 01:26:57;;;;;;;9.45;3.70;;;6.40;99.90;;;;;;4896850;29;20052;-72
2022/11/28 01:29:23;;;;;;;6.57;3.58;;;6.40;99.90;;;;;;4896366;29;20167;-72
2022/11/28 01:31:48;;;;;;;6.82;3.72;;;6.50;99.90;;;;;;4895727;29;20060;-72
2022/11/28 01:34:14;;;;;;;8.95;4.00;;;6.50;99.90;;;;;;4895779;29;20130;-72
2022/11/28 01:36:40;;;;;;;8.23;4.22;;;6.50;99.90;;;;;;4895479;29;20056;-72
2022/11/28 01:39:06;;;;;;;11.07;3.75;;;6.50;99.90;;;;;;4896736;29;20597;-72
2022/11/28 01:41:31;;;;;;;10.88;3.92;;;6.50;99.90;;;;;;4896313;29;20041;-72
2022/11/28 01:43:59;;;;;;;7.35;4.15;;;6.50;99.90;;;;;;4896527;29;20108;-72
2022/11/28 01:46:25;;;;;;;9.50;3.67;;;6.50;99.90;;;;;;4896124;29;20063;-72
2022/11/28 01:48:52;;;;;;;8.27;3.90;;;6.50;99.90;;;;;;4896562;29;20048;-72
2022/11/28 01:51:18;;;;;;;10.98;4.20;;;6.50;99.90;;;;;;4895595;29;20045;-72
2022/11/28 01:53:46;;;;;;;8.93;4.30;;;6.50;99.90;;;;;;4896702;29;20084;-72
2022/11/28 01:56:23;;;;;;;10.13;3.75;;;6.60;99.90;;;;;;4896443;29;20056;-72
2022/11/28 01:58:58;;;;;;;10.43;3.90;;;6.50;99.90;;;;;;4895083;29;20055;-72
2022/11/28 02:01:24;;;;;;;9.13;3.75;;;6.60;99.90;;;;;;4895101;29;20056;-72
2022/11/28 02:03:51;;;;;;;;;;;6.50;99.90;;;;;;4896863;29;20049;-72
2022/11/28 02:06:21;;;;;;;8.15;3.40;;;6.60;99.90;;;;;;4895440;29;19927;-72
2022/11/28 02:08:51;;;;;;;8.57;3.47;;;6.60;99.90;;;;;;4896231;29;20048;-72
2022/11/28 02:11:44;;;;;;;13.27;3.85;;;6.50;99.90;;;;;;4896077;29;20498;-73
2022/11/28 02:15:11;;;;;;;7.93;3.47;;;6.50;99.90;;;;;;4896445;29;20196;-72
2022/11/28 02:18:05;;;;;;;8.35;4.32;;;6.60;99.90;;;;;;4848786;29;20472;-72
2022/11/28 02:21:08;;;;;;;10.50;3.83;;;6.60;99.90;;;;;;4903277;29;20099;-72
2022/11/28 02:23:36;;;;;;;9.25;4.20;;;6.60;99.90;;;;;;4899243;29;20055;-72
2022/11/28 02:26:08;;;;;;;5.70;2.97;;;6.70;99.90;;;;;;4899592;29;20116;-72
2022/11/28 02:29:02;;;;;;;7.18;3.45;;;6.70;99.90;;;;;;4899490;29;20123;-72
2022/11/28 02:32:04;;;;;;;8.15;3.42;;;6.70;99.90;;;;;;4899393;29;20059;-72
2022/11/28 02:34:52;;;;;;;7.43;3.72;;;6.80;99.90;;;;;;4898802;29;20471;-72
2022/11/28 02:37:37;;;;;;;9.13;3.65;;;6.80;99.90;;;;;;4899299;29;20060;-72
2022/11/28 02:40:36;;;;;;;6.60;3.65;;;7.30;99.90;;;;;;4899554;29;20143;-72
2022/11/28 02:43:18;;;;;;;8.63;3.88;;;6.80;99.90;;;;;;4899684;29;20052;-72
2022/11/28 02:45:56;;;;;;;8.73;4.43;;;6.70;99.90;;;;;;4899295;29;20045;-72
2022/11/28 02:48:35;;;;;;;9.35;3.97;;;6.80;99.90;;;;;;4899312;29;20054;-72
2022/11/28 02:51:05;;;;;;;9.43;3.92;;;6.80;99.90;;;;;;4899088;29;20048;-72
2022/11/28 02:53:32;;;;;;;8.23;3.67;;;6.80;99.90;;;;;;4898961;29;20040;-72
2022/11/28 02:55:59;;;;;;;7.82;3.80;;;6.80;99.90;;;;;;4899406;29;20044;-72
2022/11/28 02:58:25;;;;;;;20.17;5.10;;;6.80;99.90;;;;;;4898015;29;20067;-72
2022/11/28 03:00:51;;;;;;;;;;;6.80;99.90;;;;;;4899657;29;20049;-72
2022/11/28 03:03:40;;;;;;;9.20;3.70;;;6.70;99.90;;;;;;4899272;29;19923;-72
2022/11/28 03:06:14;;;;;;;6.63;3.53;;;6.80;99.90;;;;;;4898787;29;20052;-72
2022/11/28 03:09:05;;;;;;;9.82;4.13;;;6.80;99.90;;;;;;4898640;29;20040;-72
2022/11/28 03:12:21;;;;;;;11.20;3.72;;;6.80;99.90;;;;;;4898609;29;20495;-72
2022/11/28 03:14:57;;;;;;;11.70;4.38;;;6.90;99.90;;;;;;4898631;29;20136;-72
2022/11/28 03:17:40;;;;;;;9.05;4.50;;;6.90;99.90;;;;;;4898741;29;20108;-72
2022/11/28 03:20:15;;;;;;;10.38;4.13;;;6.90;99.90;;;;;;4898580;29;20148;-72
2022/11/28 03:23:05;;;;;;;9.80;3.85;;;6.90;99.90;;;;;;4898416;29;20055;-72
2022/11/28 03:25:35;;;;;;;8.57;4.10;;;6.90;99.90;;;;;;4898147;29;20384;-72
2022/11/28 03:28:23;;;;;;;31.08;4.78;;;7.00;99.90;;;;;;4898854;29;20398;-72
2022/11/28 03:31:02;;;;;;;11.55;4.00;;;7.00;99.90;;;;;;4897906;29;20048;-72
2022/11/28 03:33:32;;;;;;;8.82;4.00;;;7.00;99.90;;;;;;4898363;29;20582;-72
2022/11/28 03:36:17;;;;;;;12.48;4.63;;;7.10;99.90;;;;;;4898371;29;20048;-72
2022/11/28 03:38:47;;;;;;;8.82;4.63;;;7.00;99.90;;;;;;4896812;29;20095;-72
2022/11/28 03:41:18;;;;;;;10.88;4.32;;;7.00;99.90;;;;;;4898627;29;20410;-72
2022/11/28 03:43:49;;;;;;;9.55;4.47;;;7.00;99.90;;;;;;4897872;29;20041;-72
2022/11/28 03:46:18;;;;;;;9.52;5.20;;;7.00;99.90;;;;;;4898384;29;20041;-72
2022/11/28 03:48:49;;;;;;;12.05;4.50;;;6.90;99.90;;;;;;4898137;29;20080;-71
2022/11/28 03:51:23;;;;;;;10.10;4.78;;;6.90;99.90;;;;;;4897889;29;20553;-72
2022/11/28 03:54:10;;;;;;;11.88;4.95;;;6.90;99.90;;;;;;4898085;29;20053;-72
2022/11/28 03:57:01;;;;;;;10.60;4.95;;;6.80;99.90;;;;;;4898211;29;20056;-72
2022/11/28 03:59:48;;;;;;;11.20;4.80;;;6.90;99.90;;;;;;4897385;29;20502;-72
2022/11/28 04:02:29;;;;;;;9.30;4.40;;;6.80;99.90;;;;;;4898378;29;20447;-72
2022/11/28 04:05:01;;;;;;;12.65;4.90;;;6.90;99.90;;;;;;4897617;29;20104;-72
2022/11/28 04:07:31;;;;;;;12.07;5.78;;;6.90;99.90;;;;;;4897691;29;20108;-72
2022/11/28 04:10:02;;;;;;;12.00;5.57;;;6.90;99.90;;;;;;4896681;29;20049;-72
2022/11/28 04:12:39;;;;;;;16.98;6.85;;;6.90;99.90;;;;;;4897724;29;20087;-72
2022/11/28 04:15:18;;;;;;;;;;;6.90;99.90;;;;;;4898339;29;20052;-72
2022/11/28 04:17:43;;;;;;;13.45;5.57;;;6.90;99.90;;;;;;4895978;29;19923;-72
2022/11/28 04:20:34;;;;;;;13.70;7.15;;;6.90;99.90;;;;;;4897309;29;20067;-72
2022/11/28 04:23:13;;;;;;;13.57;6.53;;;6.90;99.90;;;;;;4897694;29;20136;-72
2022/11/28 04:25:45;;;;;;;12.52;6.53;;;7.00;99.90;;;;;;4897304;29;20047;-72
2022/11/28 04:28:16;;;;;;;12.07;5.97;;;6.90;99.90;;;;;;4897828;29;20056;-72
2022/11/28 04:30:44;;;;;;;26.63;6.35;;;7.00;99.90;;;;;;4897348;29;20406;-72
2022/11/28 04:33:12;;;;;;;15.75;7.38;;;7.00;99.90;;;;;;4897700;29;20049;-72
2022/11/28 04:35:46;;;;;;;15.15;6.65;;;7.20;99.90;;;;;;4896749;29;20391;-72
2022/11/28 04:38:12;;;;;;;16.08;7.20;;;7.10;99.90;;;;;;4897565;29;20060;-72
2022/11/28 04:40:47;;;;;;;13.60;6.43;;;7.10;99.90;;;;;;4896790;29;20107;-72
2022/11/28 04:43:20;;;;;;;11.60;6.15;;;7.20;99.90;;;;;;4897238;29;20100;-72
2022/11/28 04:45:53;;;;;;;12.65;6.68;;;7.20;99.90;;;;;;4897029;29;20048;-72
2022/11/28 04:48:19;;;;;;;11.93;6.85;;;7.30;99.90;;;;;;4897512;29;20056;-72
2022/11/28 04:50:57;;;;;;;15.10;7.57;;;7.40;99.90;;;;;;4895362;29;20064;-72
2022/11/28 04:53:42;;;;;;;15.63;7.50;;;7.40;99.90;;;;;;4897255;29;20048;-72
2022/11/28 04:56:16;;;;;;;15.80;7.20;;;7.40;99.90;;;;;;4897083;29;20626;-72
2022/11/28 04:58:48;;;;;;;14.52;7.75;;;7.40;99.90;;;;;;4897019;29;20049;-72
2022/11/28 05:01:22;;;;;;;16.90;8.75;;;7.70;99.90;;;;;;4896032;29;20051;-72
2022/11/28 05:03:48;;;;;;;14.68;7.30;;;7.40;99.90;;;;;;4896592;29;20049;-72
2022/11/28 05:06:44;;;;;;;16.23;8.00;;;7.50;99.90;;;;;;4896475;29;20100;-72
2022/11/28 05:09:13;;;;;;;15.32;7.80;;;7.50;99.90;;;;;;4888197;29;20112;-72
2022/11/28 05:11:39;;;;;;;16.55;7.97;;;7.50;99.90;;;;;;4896701;29;20056;-72
2022/11/28 05:14:04;;;;;;;;;;;7.60;99.90;;;;;;4897410;29;20108;-72
2022/11/28 05:16:30;;;;;;;17.60;9.23;;;7.60;99.90;;;;;;4896942;29;20366;-72
2022/11/28 05:18:56;;;;;;;16.88;7.70;;;7.60;99.90;;;;;;4895247;29;20096;-72
2022/11/28 05:21:21;;;;;;;17.45;9.63;;;7.60;99.90;;;;;;4896414;29;20095;-72
2022/11/28 05:23:47;;;;;;;17.70;8.85;;;7.60;99.90;;;;;;4895222;29;20048;-72
2022/11/28 05:26:16;;;;;;;16.80;9.25;;;7.70;99.90;;;;;;4895405;29;20049;-72
2022/11/28 05:28:44;;;;;;;16.00;7.95;;;7.70;99.90;;;;;;4896381;29;20144;-72
2022/11/28 05:31:11;;;;;;;17.92;8.70;;;7.70;99.90;;;;;;4896765;29;20184;-72
2022/11/28 05:33:36;;;;;;;;;;;7.70;99.90;;;;;;4895805;29;20428;-72
2022/11/28 05:36:10;;;;;;;16.27;7.82;;;7.80;99.90;;;;;;4896210;29;19923;-72
2022/11/28 05:38:36;;;;;;;15.52;8.55;;;7.70;99.90;;;;;;4879358;29;20045;-72
2022/11/28 05:41:03;;;;;;;15.18;7.60;;;7.70;99.90;;;;;;4896352;29;20055;-72
2022/11/28 05:43:29;;;;;;;;;;;7.70;99.90;;;;;;4896991;29;20044;-72
2022/11/28 05:45:55;;;;;;;13.85;7.25;;;7.70;99.90;;;;;;4895847;29;19919;-72
2022/11/28 05:48:21;;;;;;;16.38;7.75;;;7.70;99.90;;;;;;4896669;29;20069;-72
2022/11/28 05:50:49;;;;;;;16.38;7.60;;;7.80;99.90;;;;;;4896016;29;20406;-72
2022/11/28 05:53:16;;;;;;;17.65;8.80;;;7.80;99.90;;;;;;4896334;29;20482;-72
2022/11/28 05:55:43;;;;;;;17.27;8.20;;;7.80;99.90;;;;;;4897536;29;20048;-72
2022/11/28 05:58:08;;;;;;;;;;;7.80;99.90;;;;;;4899999;29;20372;-72
2022/11/28 06:00:34;;;;;;;13.88;7.40;;;7.80;99.90;;;;;;4900236;29;19931;-72
2022/11/28 06:03:00;;;;;;;14.93;7.85;;;7.70;99.90;;;;;;4900171;29;20044;-72
2022/11/28 06:05:26;;;;;;;14.88;7.75;;;7.80;99.90;;;;;;4899657;29;20470;-72
2022/11/28 06:07:51;;;;;;;14.55;7.65;;;7.70;99.90;;;;;;4899728;29;20048;-72
2022/11/28 06:10:18;;;;;;;15.77;8.13;;;7.70;99.90;;;;;;4899798;29;20055;-72
2022/11/28 06:12:44;;;;;;;13.40;7.55;;;7.70;99.90;;;;;;4899839;29;20057;-72
2022/11/28 06:15:10;;;;;;;15.55;7.57;;;7.70;99.90;;;;;;4900360;29;20044;-73
2022/11/28 06:17:35;;;;;;;15.35;8.40;;;7.70;99.90;;;;;;4900131;29;20136;-72
2022/11/28 06:20:01;;;;;;;13.80;6.85;;;7.60;99.90;;;;;;4898260;29;20075;-72
2022/11/28 06:22:27;;;;;;;15.38;7.60;;;7.70;99.90;;;;;;4899589;29;20055;-72
2022/11/28 06:24:52;;;;;;;15.35;7.32;;;7.70;99.90;;;;;;4899393;29;20049;-72
2022/11/28 06:27:18;;;;;;;12.55;6.78;;;7.70;99.90;;;;;;4899863;29;20081;-72
2022/11/28 06:29:44;;;;;;;14.40;6.38;;;7.70;99.90;;;;;;4899559;29;20060;-72
2022/11/28 06:32:09;;;;;;;14.18;6.32;;;7.80;99.90;;;;;;4899494;29;20127;-72
2022/11/28 06:34:35;;;;;;;15.32;7.25;;;7.70;99.90;;;;;;4899114;29;20055;-72
2022/11/28 06:37:01;;;;;;;15.57;7.10;;;7.70;99.90;;;;;;4899109;29;20521;-72
2022/11/28 06:39:26;;;;;;;12.60;6.85;;;7.70;99.90;;;;;;4899590;29;20044;-72
2022/11/28 06:41:52;;;;;;;12.48;6.30;;;7.70;99.90;;;;;;4899525;29;20071;-72
2022/11/28 06:44:18;;;;;;;11.10;6.70;;;7.70;99.90;;;;;;4899346;29;20052;-72
2022/11/28 06:46:44;;;;;;;13.70;7.03;;;7.70;99.90;;;;;;4899243;29;20045;-72
2022/11/28 06:49:11;;;;;;;14.05;6.47;;;7.70;99.90;;;;;;4898630;29;20104;-72
2022/11/28 06:51:39;;;;;;;12.30;6.95;;;7.60;99.90;;;;;;4899215;29;20120;-72
2022/11/28 06:54:05;;;;;;;16.45;6.97;;;7.70;99.90;;;;;;4898724;29;20049;-72
2022/11/28 06:56:31;;;;;;;;;;;7.70;99.90;;;;;;4899589;29;20089;-72
2022/11/28 06:58:58;;;;;;;16.60;7.95;;;7.60;99.90;;;;;;4899005;29;19924;-72
2022/11/28 07:01:25;;;;;;;14.43;7.25;;;7.60;99.90;;;;;;4899175;29;20053;-72
2022/11/28 07:03:53;;;;;;;19.83;8.10;;;7.60;99.90;;;;;;4898560;29;20056;-72
2022/11/28 07:06:20;;;;;;;14.63;8.13;;;7.60;99.90;;;;;;4897968;29;20061;-71
2022/11/28 07:08:47;;;;;;;17.90;8.27;;;7.50;99.90;;;;;;4898724;29;20086;-71
2022/11/28 07:11:20;;;;;;;17.50;8.75;;;7.50;99.90;;;;;;4899046;29;20060;-70
2022/11/28 07:13:46;;;;;;;15.80;8.52;;;7.50;99.90;;;;;;4898824;29;20044;-72
2022/11/28 07:16:15;;;;;;;19.33;8.50;;;7.50;99.90;;;;;;4898613;29;20051;-71
2022/11/28 07:18:42;;;;;;;17.38;8.90;;;7.50;99.90;;;;;;4898970;29;20056;-71
2022/11/28 07:21:08;;;;;;;17.05;8.57;;;7.50;99.90;;;;;;4898023;29;20513;-71
2022/11/28 07:23:33;;;;;;;18.65;9.40;;;7.50;99.90;;;;;;4898510;29;20047;-71
2022/11/28 07:26:00;;;;;;;21.25;9.48;;;7.50;99.90;;;;;;4898553;29;20040;-71
2022/11/28 07:28:27;;;;;;;18.05;8.75;;;7.50;99.90;;;;;;4897435;29;20084;-71
2022/11/28 07:31:10;;;;;;;17.10;8.38;;;7.50;99.90;;;;;;4898129;29;20056;-71
2022/11/28 07:33:38;;;;;;;16.88;9.18;;;7.50;99.90;;;;;;4898780;29;20049;-71
2022/11/28 07:36:06;;;;;;;19.80;9.60;;;7.50;99.90;;;;;;4897700;29;20049;-71
2022/11/28 07:38:33;;;;;;;18.95;9.02;;;7.50;99.90;;;;;;4898428;29;20059;-71
2022/11/28 07:41:17;;;;;;;;;;;7.50;99.90;;;;;;4898482;29;20044;-71
2022/11/28 07:43:45;;;;;;;19.00;9.38;;;7.50;99.90;;;;;;4898681;29;19934;-72
2022/11/28 07:46:16;;;;;;;19.65;9.73;;;7.50;99.90;;;;;;4898352;29;20047;-72
2022/11/28 07:48:42;;;;;;;18.88;9.32;;;7.50;99.90;;;;;;4898595;29;20052;-71
2022/11/28 07:51:15;;;;;;;15.63;9.02;;;7.50;99.90;;;;;;4897783;29;20292;-71
2022/11/28 07:53:42;;;;;;;19.48;9.40;;;7.60;99.90;;;;;;4897672;29;20044;-75
2022/11/28 07:56:12;;;;;;;21.25;10.18;;;7.50;99.90;;;;;;4896382;29;20111;-71
2022/11/28 07:58:38;;;;;;;20.83;9.98;;;7.60;99.90;;;;;;4897541;29;20490;-71
2022/11/28 08:01:12;;;;;;;18.13;9.82;;;7.50;99.90;;;;;;4896535;29;20117;-72
2022/11/28 08:03:38;;;;;;;19.48;8.80;;;7.60;99.90;;;;;;4896114;29;20594;-72
2022/11/28 08:06:04;;;;;;;;;;;7.60;99.90;;;;;;4897149;29;20048;-70
2022/11/28 08:08:30;;;;;;;21.45;8.88;;;7.50;99.90;;;;;;4897375;29;19923;-72
2022/11/28 08:10:57;;;;;;;;;;;7.50;99.90;;;;;;4897338;29;20115;-71
2022/11/28 08:13:22;;;;;;;19.50;9.55;;;7.60;99.90;;;;;;4897199;29;20000;-72
2022/11/28 08:15:48;;;;;;;22.70;9.23;;;7.60;99.90;;;;;;4896979;29;20137;-72
2022/11/28 08:18:14;;;;;;;19.85;9.40;;;7.60;99.90;;;;;;4896026;29;20052;-73
2022/11/28 08:20:39;;;;;;;17.00;8.90;;;7.60;99.90;;;;;;4896560;29;20483;-73
2022/11/28 08:23:05;;;;;;;22.65;10.55;;;7.50;99.90;;;;;;4896001;29;20491;-73
2022/11/28 08:25:31;;;;;;;24.80;10.82;;;7.60;99.90;;;;;;4896411;29;20403;-72
2022/11/28 08:27:57;;;;;;;20.60;9.18;;;7.60;99.90;;;;;;4896449;29;20061;-71
2022/11/28 08:30:23;;;;;;;19.90;10.68;;;7.60;99.90;;;;;;4897459;29;20395;-71
2022/11/28 08:32:49;;;;;;;21.55;9.80;;;7.60;99.90;;;;;;4897658;29;20483;-72
2022/11/28 08:35:14;;;;;;;20.95;10.02;;;7.60;99.90;;;;;;4896700;29;20138;-71
2022/11/28 08:37:40;;;;;;;24.50;10.25;;;7.60;99.90;;;;;;4897355;29;20086;-71
2022/11/28 08:40:06;;;;;;;22.40;10.55;;;7.60;99.90;;;;;;4896950;29;20055;-72
2022/11/28 08:42:32;;;;;;;19.48;10.23;;;7.50;99.90;;;;;;4897533;29;20104;-71
2022/11/28 08:44:58;;;;;;;22.73;10.02;;;7.50;99.90;;;;;;4896734;29;20048;-72
2022/11/28 08:47:23;;;;;;;23.63;11.52;;;7.50;99.90;;;;;;4897478;29;20372;-71
2022/11/28 08:49:49;;;;;;;25.70;11.77;;;7.50;99.90;;;;;;4896763;29;20063;-71
2022/11/28 08:52:15;;;;;;;23.05;10.13;;;7.50;99.90;;;;;;4896756;29;20051;-72
2022/11/28 08:54:41;;;;;;;25.33;11.20;;;7.50;99.90;;;;;;4896130;29;20059;-72
2022/11/28 08:57:06;;;;;;;23.52;10.80;;;7.50;99.90;;;;;;4895746;29;20059;-72
2022/11/28 08:59:32;;;;;;;21.02;10.15;;;7.50;99.90;;;;;;4897118;29;20052;-71
2022/11/28 09:01:58;;;;;;;20.58;10.32;;;7.60;99.90;;;;;;4896785;29;20056;-72
2022/11/28 09:04:23;;;;;;;21.67;10.77;;;7.50;99.90;;;;;;4896540;29;20060;-72
2022/11/28 09:06:49;;;;;;;23.95;11.27;;;7.50;99.90;;;;;;4896581;29;20048;-72
2022/11/28 09:09:15;;;;;;;22.55;10.02;;;7.50;99.90;;;;;;4896505;29;20208;-71
2022/11/28 09:11:41;;;;;;;22.50;9.45;;;7.50;99.90;;;;;;4896957;29;20417;-71
2022/11/28 09:14:07;;;;;;;20.58;10.35;;;7.50;99.90;;;;;;4896444;29;20123;-72
2022/11/28 09:16:33;;;;;;;19.05;9.40;;;7.50;99.90;;;;;;4896924;29;20191;-71
2022/11/28 09:18:58;;;;;;;19.05;9.05;;;7.60;99.90;;;;;;4896552;29;20057;-72
2022/11/28 09:21:25;;;;;;;19.88;9.27;;;7.60;99.90;;;;;;4896433;29;20048;-72
2022/11/28 09:23:54;;;;;;;18.10;9.45;;;7.60;99.90;;;;;;4896538;29;20041;-72
2022/11/28 09:26:22;;;;;;;20.63;9.55;;;7.60;99.90;;;;;;4896451;29;20048;-72
2022/11/28 09:28:47;;;;;;;16.75;9.10;;;7.50;99.90;;;;;;4895521;29;20411;-72
2022/11/28 09:31:15;;;;;;;18.85;9.57;;;7.60;99.90;;;;;;4896274;29;20059;-72
2022/11/28 09:33:41;;;;;;;21.00;9.27;;;7.50;99.90;;;;;;4896705;29;20041;-72
2022/11/28 09:36:08;;;;;;;;;;;7.60;99.90;;;;;;4895961;29;20185;-72
2022/11/28 09:38:34;;;;;;;18.48;9.10;;;7.60;99.90;;;;;;4896415;29;19927;-72
2022/11/28 09:41:01;;;;;;;18.75;9.07;;;7.60;99.90;;;;;;4895006;29;20444;-72
2022/11/28 09:43:32;;;;;;;19.08;9.50;;;7.60;99.90;;;;;;4896635;29;20040;-72
2022/11/28 09:46:01;;;;;;;19.20;9.63;;;7.50;99.90;;;;;;4896430;29;20131;-72
2022/11/28 09:48:40;;;;;;;19.27;9.15;;;7.50;99.90;;;;;;4896629;29;20052;-71
2022/11/28 09:51:34;;;;;;;17.40;8.57;;;7.50;99.90;;;;;;4895784;29;20067;-72
2022/11/28 09:54:07;;;;;;;17.42;8.70;;;7.60;99.90;;;;;;4890915;29;20053;-72
2022/11/28 09:56:32;;;;;;;17.27;9.07;;;7.60;99.90;;;;;;4896689;29;20145;-72
2022/11/28 09:59:02;;;;;;;20.85;9.63;;;7.60;99.90;;;;;;4896388;29;20084;-71
2022/11/28 10:01:54;;;;;;;19.80;8.60;;;7.60;99.90;;;;;;4896150;29;20478;-71
2022/11/28 10:04:26;;;;;;;18.83;10.18;;;7.60;99.90;;;;;;4895601;29;20051;-72
2022/11/28 10:07:00;;;;;;;20.75;9.35;;;7.60;99.90;;;;;;4896246;29;20120;-71
2022/11/28 10:09:44;;;;;;;22.70;10.00;;;7.60;99.90;;;;;;4895026;29;20135;-71
2022/11/28 10:12:51;;;;;;;19.95;10.07;;;7.60;99.90;;;;;;4896205;29;20056;-71
2022/11/28 10:15:40;;;;;;;17.33;8.83;;;7.60;99.90;;;;;;4895437;29;20667;-72
2022/11/28 10:18:18;;;;;;;19.20;8.10;;;7.60;99.90;;;;;;4896060;29;20048;-71
2022/11/28 10:20:46;;;;;;;18.52;9.00;;;7.60;99.90;;;;;;4895937;29;20053;-71
2022/11/28 10:23:53;;;;;;;14.43;8.00;;;7.60;99.90;;;;;;4895763;29;20049;-72
2022/11/28 10:26:30;;;;;;;16.55;7.85;;;7.60;99.90;;;;;;4855997;29;20053;-71
2022/11/28 10:28:58;;;;;;;15.13;8.18;;;7.60;99.90;;;;;;4856333;29;20066;-72
2022/11/28 10:31:28;;;;;;;16.85;8.70;;;7.50;99.90;;;;;;4870323;29;20103;-71
2022/11/28 10:33:59;;;;;;;17.75;8.30;;;7.60;99.90;;;;;;4896216;29;20048;-72
2022/11/28 10:36:31;;;;;;;17.92;8.48;;;7.60;99.90;;;;;;4895388;29;20261;-71
2022/11/28 10:39:01;;;;;;;19.38;8.43;;;7.70;99.90;;;;;;4895916;29;20044;-72
2022/11/28 10:41:36;;;;;;;15.80;8.07;;;7.70;99.90;;;;;;4897877;29;20083;-72
2022/11/28 10:44:27;;;;;;;17.27;9.60;;;7.60;99.90;;;;;;4899621;29;20102;-71
2022/11/28 10:47:09;;;;;;;17.85;9.07;;;7.70;99.90;;;;;;4899652;29;20151;-71
2022/11/28 10:50:00;;;;;;;16.65;8.32;;;7.60;99.90;;;;;;4897980;29;20052;-72
2022/11/28 10:52:31;;;;;;;19.83;8.35;;;7.70;99.90;;;;;;4898982;29;20086;-72
2022/11/28 10:55:18;;;;;;;17.02;8.82;;;7.70;99.90;;;;;;4899275;29;20467;-71
2022/11/28 10:57:59;;;;;;;;;;;7.70;99.90;;;;;;4899775;29;20051;-71
2022/11/28 11:00:25;;;;;;;18.20;9.02;;;7.70;99.90;;;;;;4898660;29;20074;-71
2022/11/28 11:02:55;;;;;;;16.67;8.23;;;7.80;99.90;;;;;;4899330;29;20143;-71
2022/11/28 11:05:25;;;;;;;18.38;8.88;;;7.80;99.90;;;;;;4898405;29;20044;-72
2022/11/28 11:07:54;;;;;;;17.02;9.18;;;7.80;99.90;;;;;;4898863;29;20565;-72
2022/11/28 11:10:30;;;;;;;17.02;8.95;;;7.80;99.90;;;;;;4898645;29;20059;-72
2022/11/28 11:12:57;;;;;;;18.08;8.93;;;7.80;99.90;;;;;;4899316;29;20056;-72
2022/11/28 11:15:34;;;;;;;17.50;8.98;;;7.80;99.90;;;;;;4897291;29;20054;-72
2022/11/28 11:18:04;;;;;;;14.73;8.02;;;7.80;99.90;;;;;;4898333;29;20525;-71
2022/11/28 11:20:37;;;;;;;14.13;7.57;;;7.80;99.90;;;;;;4898250;29;20062;-71
2022/11/28 11:23:17;;;;;;;14.80;7.82;;;7.80;99.90;;;;;;4898984;29;20140;-71
2022/11/28 11:25:55;;;;;;;16.23;9.23;;;7.90;99.90;;;;;;4898513;29;20056;-72
2022/11/28 11:28:41;;;;;;;17.33;8.25;;;7.80;99.90;;;;;;4898176;29;20103;-71
2022/11/28 11:31:40;;;;;;;15.52;8.40;;;7.80;99.90;;;;;;4898357;29;20052;-72
2022/11/28 11:34:17;;;;;;;14.30;6.78;;;7.80;99.90;;;;;;4897592;29;20052;-72
2022/11/28 11:36:43;;;;;;;16.77;7.75;;;7.90;99.90;;;;;;4897983;29;20052;-71
2022/11/28 11:39:12;;;;;;;16.55;8.10;;;7.90;99.90;;;;;;4898373;29;20565;-72
2022/11/28 11:41:40;;;;;;;13.95;7.63;;;7.90;99.90;;;;;;4898511;29;20119;-71
2022/11/28 11:44:19;;;;;;;16.90;7.72;;;7.90;99.90;;;;;;4898392;29;20084;-71
2022/11/28 11:47:02;;;;;;;14.00;7.63;;;7.90;99.90;;;;;;4898544;29;20127;-71
2022/11/28 11:49:42;;;;;;;15.50;7.82;;;7.80;99.90;;;;;;4897293;29;20111;-71
2022/11/28 11:52:11;;;;;;;13.32;7.35;;;7.90;99.90;;;;;;4897317;29;20056;-71
2022/11/28 11:54:55;;;;;;;15.63;7.20;;;7.90;99.90;;;;;;4898179;29;20127;-71
2022/11/28 11:57:31;;;;;;;13.18;6.93;;;7.90;99.90;;;;;;4897801;29;20105;-71
2022/11/28 11:59:59;;;;;;;16.45;8.10;;;7.80;99.90;;;;;;4898200;29;20055;-72
2022/11/28 12:02:32;;;;;;;13.52;7.57;;;7.80;99.90;;;;;;4897801;29;20112;-71
2022/11/28 12:05:07;;;;;;;13.98;7.88;;;7.80;99.90;;;;;;4897168;29;20491;-71
2022/11/28 12:07:45;;;;;;;18.50;8.02;;;7.80;99.90;;;;;;4897589;29;20079;-71
2022/11/28 12:10:17;;;;;;;15.82;7.13;;;7.80;99.90;;;;;;4897455;29;20048;-73
2022/11/28 12:12:45;;;;;;;15.43;8.23;;;7.90;99.90;;;;;;4898075;29;20495;-71
2022/11/28 12:15:17;;;;;;;13.50;7.43;;;7.90;99.90;;;;;;4897549;29;20392;-71
2022/11/28 12:18:18;;;;;;;14.05;7.53;;;7.80;99.90;;;;;;4897760;29;20051;-71
2022/11/28 12:21:12;;;;;;;18.02;8.02;;;7.80;99.90;;;;;;4897297;29;20048;-70
2022/11/28 12:23:59;;;;;;;14.05;7.75;;;7.80;99.90;;;;;;4897194;29;20059;-71
2022/11/28 12:26:37;;;;;;;14.13;7.53;;;7.80;99.90;;;;;;4897373;29;20057;-72
2022/11/28 12:29:33;;;;;;;14.02;7.10;;;7.90;99.90;;;;;;4897409;29;20079;-71
2022/11/28 12:32:07;;;;;;;13.80;7.47;;;7.90;99.90;;;;;;4883306;29;20422;-70
2022/11/28 12:34:56;;;;;;;15.68;7.43;;;7.90;99.90;;;;;;4896717;29;20088;-70
2022/11/28 12:38:03;;;;;;;14.57;7.97;;;7.90;99.90;;;;;;4897197;29;20084;-71
2022/11/28 12:41:00;;;;;;;13.90;6.72;;;7.90;99.90;;;;;;4873913;29;20067;-67
2022/11/28 12:44:03;;;;;;;14.55;8.60;;;7.90;99.90;;;;;;4894222;29;20044;-72
2022/11/28 12:46:41;;;;;;;14.73;7.35;;;7.90;99.90;;;;;;4896355;29;20107;-69
2022/11/28 12:49:20;;;;;;;14.50;7.70;;;7.90;99.90;;;;;;4896333;29;20056;-68
2022/11/28 12:52:08;;;;;;;15.00;7.75;;;7.90;99.90;;;;;;4896922;29;20047;-68
2022/11/28 12:54:52;;;;;;;16.48;7.88;;;7.90;99.90;;;;;;4896630;29;20044;-68
2022/11/28 12:57:41;;;;;;;15.48;7.78;;;7.90;99.90;;;;;;4895234;29;20586;-72
2022/11/28 13:00:26;;;;;;;14.32;7.70;;;7.90;99.90;;;;;;4895538;29;20091;-67
2022/11/28 13:03:19;;;;;;;12.23;6.43;;;8.00;99.90;;;;;;4897183;29;20056;-70
2022/11/28 13:05:50;;;;;;;13.10;6.90;;;7.90;99.90;;;;;;4896387;29;20055;-67
2022/11/28 13:08:25;;;;;;;13.38;7.07;;;7.90;99.90;;;;;;4896290;29;20570;-68
2022/11/28 13:11:20;;;;;;;13.40;6.43;;;7.90;99.90;;;;;;4896326;29;20058;-68
2022/11/28 13:13:55;;;;;;;16.23;7.28;;;7.90;99.90;;;;;;4896368;29;20541;-67
2022/11/28 13:16:27;;;;;;;14.55;7.00;;;8.00;99.90;;;;;;4893430;29;20521;-71
2022/11/28 13:19:02;;;;;;;12.90;6.50;;;7.90;99.90;;;;;;4896324;29;20442;-68
2022/11/28 13:21:39;;;;;;;12.75;6.28;;;7.90;99.90;;;;;;4894303;29;20087;-67